createdAt,value
2023-04-15T00:14:34.623Z,20.71
2023-04-15T00:29:36.580Z,20.66
2023-04-15T00:44:38.253Z,20.64
2023-04-15T00:59:39.974Z,20.66
2023-04-15T01:14:41.702Z,20.78
2023-04-15T01:29:43.418Z,20.84
2023-04-15T01:44:45.121Z,20.89
2023-04-15T01:59:46.814Z,20.94
2023-04-15T02:14:48.485Z,20.97
2023-04-15T02:29:50.155Z,21.01
2023-04-15T02:44:52.051Z,21.02
2023-04-15T02:59:53.744Z,21.06
2023-04-15T03:14:55.365Z,21.07
2023-04-15T03:29:56.992Z,21.09
2023-04-15T03:44:58.648Z,21.10
2023-04-15T04:00:00.310Z,21.13
2023-04-15T04:15:01.973Z,21.13
2023-04-15T04:30:04.237Z,21.16
2023-04-15T04:45:06.371Z,21.18
2023-04-15T05:00:08.628Z,21.18
2023-04-15T05:15:10.799Z,21.19
2023-04-15T05:30:13.722Z,21.25
2023-04-15T05:45:15.696Z,21.26
2023-04-15T06:00:17.578Z,21.26
2023-04-15T06:15:19.448Z,21.28
2023-04-15T06:30:22.940Z,21.30
2023-04-15T06:45:26.108Z,21.30
2023-04-15T07:00:27.847Z,21.32
2023-04-15T07:15:29.514Z,21.32
2023-04-15T07:30:31.213Z,21.29
2023-04-15T07:45:32.920Z,21.26
2023-04-15T08:00:34.627Z,21.21
2023-04-15T08:15:36.348Z,21.17
2023-04-15T08:30:38.038Z,21.12
2023-04-15T08:45:39.984Z,21.05
2023-04-15T09:00:42.169Z,21.02
2023-04-15T09:15:43.921Z,20.99
2023-04-15T09:30:45.565Z,20.96
2023-04-15T09:45:52.664Z,20.94
2023-04-15T10:00:56.232Z,20.97
2023-04-15T10:16:00.713Z,21.04
2023-04-15T10:31:02.819Z,21.09
2023-04-15T10:46:06.609Z,21.11
2023-04-15T11:01:08.318Z,21.15
2023-04-15T11:16:10.071Z,21.17
2023-04-15T11:31:14.248Z,21.19
2023-04-15T11:46:16.139Z,21.23
2023-04-15T12:01:18.285Z,21.27
2023-04-15T12:16:20.266Z,21.29
2023-04-15T12:31:22.084Z,21.30
2023-04-15T12:46:24.184Z,21.31
2023-04-15T13:01:25.959Z,21.32
2023-04-15T13:16:28.263Z,21.35
2023-04-15T13:31:30.040Z,21.36
2023-04-15T13:46:31.922Z,21.37
2023-04-15T14:01:34.680Z,21.39
2023-04-15T14:16:36.477Z,21.39
2023-04-15T14:31:38.649Z,21.41
2023-04-15T14:46:42.943Z,21.42
2023-04-15T15:01:44.760Z,21.41
2023-04-15T15:16:46.496Z,21.40
2023-04-15T15:31:48.712Z,21.43
2023-04-15T15:46:50.864Z,21.42
2023-04-15T16:01:53.017Z,21.41
2023-04-15T16:16:54.981Z,21.42
2023-04-15T16:31:56.937Z,21.43
2023-04-15T16:46:58.621Z,21.43
2023-04-15T17:02:03.290Z,21.43
2023-04-15T17:17:05.134Z,21.42
2023-04-15T17:32:06.814Z,21.43
2023-04-15T17:47:08.583Z,21.42
2023-04-15T18:02:10.454Z,21.44
2023-04-15T18:17:12.305Z,21.44
2023-04-15T18:32:14.047Z,21.45
2023-04-15T18:47:16.253Z,21.47
2023-04-15T19:02:18.029Z,21.48
2023-04-15T19:17:19.790Z,21.47
2023-04-15T19:32:21.616Z,21.43
2023-04-15T19:47:23.579Z,21.39
2023-04-15T20:02:25.558Z,21.34
2023-04-15T20:17:27.655Z,21.29
2023-04-15T20:32:29.547Z,21.23
2023-04-15T20:47:31.705Z,21.20
2023-04-15T21:02:33.559Z,21.16
2023-04-15T21:17:35.388Z,21.13
2023-04-15T21:32:37.235Z,21.08
2023-04-15T21:48:06.169Z,21.07
2023-04-15T22:03:00.839Z,21.03
2023-04-15T22:18:02.626Z,20.99
2023-04-15T22:33:04.556Z,20.95
2023-04-15T22:48:06.321Z,20.90
2023-04-15T23:03:08.375Z,20.87
2023-04-15T23:18:10.244Z,20.89
2023-04-15T23:33:12.027Z,20.93
2023-04-15T23:48:13.739Z,20.95
